Terminal Aerodrome Forecast
Issued by NWS Sterling, VA

Current Version | Previous Version | Text Only | Print | Product List | Glossary Off
Versions: 1 2 3 4 5 6 7 8 9 10 11 12 13 14 15 16 17 18 19 20 21 22 23 24 25 26 27 28 29

637
FTUS41 KLWX 191731
TAFDCA
TAF
KDCA 191731Z 1918/2018 26007KT P6SM BKN035 BKN050
     FM192100 26008KT P6SM FEW035 SCT050
     FM200100 29006KT P6SM FEW250
     FM200500 33010KT P6SM SKC
     FM201500 32012KT P6SM FEW035=

USA.gov is the U.S. government's official web portal to all federal, state and local government web resources and services.